sensor_id;sensor_type;location;lat;lon;timestamp;noise_LAeq;noise_LA_min;noise_LA_max;noise_LA01;noise_LA95
57092;Laerm;42968;52.094;4.328;2023-07-20T00:01:59;48.90;46.55;54.83;;
57092;Laerm;42968;52.094;4.328;2023-07-20T00:04:24;48.98;46.93;56.07;;
57092;Laerm;42968;52.094;4.328;2023-07-20T00:06:49;49.11;46.66;54.97;;
57092;Laerm;42968;52.094;4.328;2023-07-20T00:09:14;48.87;46.84;54.97;;
57092;Laerm;42968;52.094;4.328;2023-07-20T00:11:40;48.80;46.69;55.05;;
57092;Laerm;42968;52.094;4.328;2023-07-20T00:14:05;49.02;46.93;54.92;;
57092;Laerm;42968;52.094;4.328;2023-07-20T00:16:31;49.20;47.20;52.64;;
57092;Laerm;42968;52.094;4.328;2023-07-20T00:18:56;49.12;47.06;52.94;;
57092;Laerm;42968;52.094;4.328;2023-07-20T00:21:21;49.89;47.18;53.30;;
57092;Laerm;42968;52.094;4.328;2023-07-20T00:23:47;49.83;46.78;54.16;;
57092;Laerm;42968;52.094;4.328;2023-07-20T00:26:12;50.51;47.12;54.99;;
57092;Laerm;42968;52.094;4.328;2023-07-20T00:28:37;49.43;46.93;52.48;;
57092;Laerm;42968;52.094;4.328;2023-07-20T00:31:02;49.71;46.95;52.58;;
57092;Laerm;42968;52.094;4.328;2023-07-20T00:33:28;48.88;46.69;51.53;;
57092;Laerm;42968;52.094;4.328;2023-07-20T00:35:53;48.68;46.66;50.98;;
57092;Laerm;42968;52.094;4.328;2023-07-20T00:38:18;48.93;46.73;51.45;;
57092;Laerm;42968;52.094;4.328;2023-07-20T00:40:44;49.23;47.28;51.93;;
57092;Laerm;42968;52.094;4.328;2023-07-20T00:43:09;49.02;47.02;51.47;;
57092;Laerm;42968;52.094;4.328;2023-07-20T00:45:34;49.03;46.95;51.80;;
57092;Laerm;42968;52.094;4.328;2023-07-20T00:48:01;48.96;46.91;51.75;;
57092;Laerm;42968;52.094;4.328;2023-07-20T00:50:27;48.99;46.76;51.30;;
57092;Laerm;42968;52.094;4.328;2023-07-20T00:52:53;49.34;47.19;52.86;;
57092;Laerm;42968;52.094;4.328;2023-07-20T00:55:19;49.44;47.02;52.44;;
57092;Laerm;42968;52.094;4.328;2023-07-20T00:57:44;49.47;46.59;55.82;;
57092;Laerm;42968;52.094;4.328;2023-07-20T01:00:09;49.17;46.95;51.84;;
57092;Laerm;42968;52.094;4.328;2023-07-20T01:02:35;50.12;47.08;54.07;;
57092;Laerm;42968;52.094;4.328;2023-07-20T01:05:01;50.73;47.54;54.00;;
57092;Laerm;42968;52.094;4.328;2023-07-20T01:07:31;50.32;47.72;53.49;;
57092;Laerm;42968;52.094;4.328;2023-07-20T01:12:42;51.87;47.77;57.75;;
57092;Laerm;42968;52.094;4.328;2023-07-20T01:15:08;50.32;47.16;60.25;;
57092;Laerm;42968;52.094;4.328;2023-07-20T01:17:33;52.86;47.77;60.18;;
57092;Laerm;42968;52.094;4.328;2023-07-20T01:19:59;49.85;47.30;59.83;;
57092;Laerm;42968;52.094;4.328;2023-07-20T01:32:46;49.82;47.34;54.72;;
57092;Laerm;42968;52.094;4.328;2023-07-20T01:35:12;50.00;47.10;53.74;;
57092;Laerm;42968;52.094;4.328;2023-07-20T01:37:42;49.46;47.30;54.57;;
57092;Laerm;42968;52.094;4.328;2023-07-20T01:40:08;49.83;47.67;53.27;;
57092;Laerm;42968;52.094;4.328;2023-07-20T01:42:34;49.31;47.22;52.96;;
57092;Laerm;42968;52.094;4.328;2023-07-20T01:44:59;49.31;47.10;53.53;;
57092;Laerm;42968;52.094;4.328;2023-07-20T01:47:25;49.91;47.18;55.09;;
57092;Laerm;42968;52.094;4.328;2023-07-20T01:49:50;49.84;47.28;55.07;;
57092;Laerm;42968;52.094;4.328;2023-07-20T01:52:15;49.54;47.36;52.15;;
57092;Laerm;42968;52.094;4.328;2023-07-20T01:54:40;49.52;47.28;53.83;;
57092;Laerm;42968;52.094;4.328;2023-07-20T01:57:06;49.26;47.20;52.66;;
57092;Laerm;42968;52.094;4.328;2023-07-20T01:59:31;49.54;47.04;53.74;;
57092;Laerm;42968;52.094;4.328;2023-07-20T02:01:56;49.56;47.24;53.66;;
57092;Laerm;42968;52.094;4.328;2023-07-20T02:04:21;49.40;47.23;52.63;;
57092;Laerm;42968;52.094;4.328;2023-07-20T02:06:47;50.46;47.00;55.62;;
57092;Laerm;42968;52.094;4.328;2023-07-20T02:09:12;49.30;47.16;51.71;;
57092;Laerm;42968;52.094;4.328;2023-07-20T02:11:37;48.98;47.04;51.56;;
57092;Laerm;42968;52.094;4.328;2023-07-20T02:14:02;49.65;47.14;56.76;;
57092;Laerm;42968;52.094;4.328;2023-07-20T02:16:28;49.53;47.26;53.03;;
57092;Laerm;42968;52.094;4.328;2023-07-20T02:18:53;49.33;47.18;51.71;;
57092;Laerm;42968;52.094;4.328;2023-07-20T02:21:18;49.52;47.22;54.31;;
57092;Laerm;42968;52.094;4.328;2023-07-20T02:23:43;50.33;47.12;55.90;;
57092;Laerm;42968;52.094;4.328;2023-07-20T02:26:09;49.56;47.44;52.12;;
57092;Laerm;42968;52.094;4.328;2023-07-20T02:28:34;49.85;47.72;57.12;;
57092;Laerm;42968;52.094;4.328;2023-07-20T02:30:59;50.53;47.40;54.07;;
57092;Laerm;42968;52.094;4.328;2023-07-20T02:33:25;50.09;47.18;53.63;;
57092;Laerm;42968;52.094;4.328;2023-07-20T02:35:51;49.64;46.62;54.10;;
57092;Laerm;42968;52.094;4.328;2023-07-20T02:38:16;49.51;47.14;51.89;;
57092;Laerm;42968;52.094;4.328;2023-07-20T02:40:42;49.10;46.91;51.36;;
57092;Laerm;42968;52.094;4.328;2023-07-20T02:43:07;48.97;47.16;51.20;;
57092;Laerm;42968;52.094;4.328;2023-07-20T02:45:32;49.24;47.00;51.65;;
57092;Laerm;42968;52.094;4.328;2023-07-20T02:47:57;49.31;47.30;52.17;;
57092;Laerm;42968;52.094;4.328;2023-07-20T02:50:23;49.46;47.22;52.38;;
57092;Laerm;42968;52.094;4.328;2023-07-20T02:52:48;48.99;46.87;51.79;;
57092;Laerm;42968;52.094;4.328;2023-07-20T02:55:13;49.38;47.32;52.25;;
57092;Laerm;42968;52.094;4.328;2023-07-20T02:57:38;49.13;47.08;51.43;;
57092;Laerm;42968;52.094;4.328;2023-07-20T03:00:04;49.18;47.02;51.82;;
57092;Laerm;42968;52.094;4.328;2023-07-20T03:02:30;49.31;46.87;52.29;;
57092;Laerm;42968;52.094;4.328;2023-07-20T03:04:56;49.51;47.14;52.98;;
57092;Laerm;42968;52.094;4.328;2023-07-20T03:07:22;49.60;47.26;52.48;;
57092;Laerm;42968;52.094;4.328;2023-07-20T03:09:47;49.59;47.26;51.97;;
57092;Laerm;42968;52.094;4.328;2023-07-20T03:12:13;50.09;47.44;53.27;;
57092;Laerm;42968;52.094;4.328;2023-07-20T03:14:38;49.69;47.38;53.94;;
57092;Laerm;42968;52.094;4.328;2023-07-20T03:17:04;49.47;47.04;57.70;;
57092;Laerm;42968;52.094;4.328;2023-07-20T03:19:29;49.41;47.04;51.59;;
57092;Laerm;42968;52.094;4.328;2023-07-20T03:21:55;49.35;47.32;53.54;;
57092;Laerm;42968;52.094;4.328;2023-07-20T03:24:20;50.93;48.20;53.57;;
57092;Laerm;42968;52.094;4.328;2023-07-20T03:26:46;50.19;47.88;52.81;;
57092;Laerm;42968;52.094;4.328;2023-07-20T03:29:11;50.32;47.79;54.89;;
57092;Laerm;42968;52.094;4.328;2023-07-20T03:31:36;50.42;48.08;52.88;;
57092;Laerm;42968;52.094;4.328;2023-07-20T03:34:01;50.39;47.95;53.16;;
57092;Laerm;42968;52.094;4.328;2023-07-20T03:36:27;51.40;48.18;54.22;;
57092;Laerm;42968;52.094;4.328;2023-07-20T03:38:52;51.36;48.67;54.83;;
57092;Laerm;42968;52.094;4.328;2023-07-20T03:41:17;50.38;48.07;53.07;;
57092;Laerm;42968;52.094;4.328;2023-07-20T03:43:44;53.64;47.72;63.73;;
57092;Laerm;42968;52.094;4.328;2023-07-20T03:46:10;50.80;47.76;63.18;;
57092;Laerm;42968;52.094;4.328;2023-07-20T03:48:35;50.30;47.90;57.67;;
57092;Laerm;42968;52.094;4.328;2023-07-20T03:51:01;49.92;47.50;53.92;;
57092;Laerm;42968;52.094;4.328;2023-07-20T03:53:26;50.09;47.77;56.15;;
57092;Laerm;42968;52.094;4.328;2023-07-20T03:55:51;49.99;47.70;52.53;;
57092;Laerm;42968;52.094;4.328;2023-07-20T03:58:17;50.16;47.96;52.28;;
57092;Laerm;42968;52.094;4.328;2023-07-20T04:00:46;50.45;47.79;53.18;;
57092;Laerm;42968;52.094;4.328;2023-07-20T04:03:12;50.36;48.10;52.85;;
57092;Laerm;42968;52.094;4.328;2023-07-20T04:05:38;49.96;47.90;52.88;;
57092;Laerm;42968;52.094;4.328;2023-07-20T04:08:03;49.63;47.26;52.04;;
57092;Laerm;42968;52.094;4.328;2023-07-20T04:10:28;49.40;47.26;51.87;;
57092;Laerm;42968;52.094;4.328;2023-07-20T04:12:54;49.49;47.52;51.56;;
57092;Laerm;42968;52.094;4.328;2023-07-20T04:15:19;50.24;47.50;52.58;;
57092;Laerm;42968;52.094;4.328;2023-07-20T04:17:44;49.68;47.12;53.15;;
57092;Laerm;42968;52.094;4.328;2023-07-20T04:20:10;49.28;47.19;51.67;;
57092;Laerm;42968;52.094;4.328;2023-07-20T04:22:35;49.27;47.44;51.53;;
57092;Laerm;42968;52.094;4.328;2023-07-20T04:25:00;49.30;47.40;51.47;;
57092;Laerm;42968;52.094;4.328;2023-07-20T04:27:26;49.99;46.84;52.44;;
57092;Laerm;42968;52.094;4.328;2023-07-20T04:29:51;49.23;46.91;52.53;;
57092;Laerm;42968;52.094;4.328;2023-07-20T04:32:17;48.94;46.87;51.35;;
57092;Laerm;42968;52.094;4.328;2023-07-20T04:34:42;49.28;47.24;51.74;;
57092;Laerm;42968;52.094;4.328;2023-07-20T04:37:07;49.54;47.18;52.50;;
57092;Laerm;42968;52.094;4.328;2023-07-20T04:39:33;49.51;47.04;51.85;;
57092;Laerm;42968;52.094;4.328;2023-07-20T04:41:58;49.29;47.36;51.80;;
57092;Laerm;42968;52.094;4.328;2023-07-20T04:44:24;49.85;47.32;52.36;;
57092;Laerm;42968;52.094;4.328;2023-07-20T04:46:49;49.56;47.24;52.33;;
57092;Laerm;42968;52.094;4.328;2023-07-20T04:49:14;49.31;47.34;51.32;;
57092;Laerm;42968;52.094;4.328;2023-07-20T04:51:40;49.11;46.90;51.19;;
57092;Laerm;42968;52.094;4.328;2023-07-20T04:54:05;49.39;47.30;51.67;;
57092;Laerm;42968;52.094;4.328;2023-07-20T04:56:30;49.33;47.00;51.71;;
57092;Laerm;42968;52.094;4.328;2023-07-20T04:58:55;49.83;47.48;52.74;;
57092;Laerm;42968;52.094;4.328;2023-07-20T05:01:21;49.39;47.42;51.37;;
57092;Laerm;42968;52.094;4.328;2023-07-20T05:03:46;49.21;47.16;52.15;;
57092;Laerm;42968;52.094;4.328;2023-07-20T05:06:11;49.48;47.36;54.69;;
57092;Laerm;42968;52.094;4.328;2023-07-20T05:08:37;49.29;47.24;51.91;;
57092;Laerm;42968;52.094;4.328;2023-07-20T05:11:02;49.82;47.28;56.80;;
57092;Laerm;42968;52.094;4.328;2023-07-20T05:13:28;49.74;47.08;57.19;;
57092;Laerm;42968;52.094;4.328;2023-07-20T05:15:53;49.80;47.38;53.00;;
57092;Laerm;42968;52.094;4.328;2023-07-20T05:18:18;50.11;47.38;53.74;;
57092;Laerm;42968;52.094;4.328;2023-07-20T05:20:46;49.68;47.26;54.20;;
57092;Laerm;42968;52.094;4.328;2023-07-20T05:23:11;49.51;47.16;53.25;;
57092;Laerm;42968;52.094;4.328;2023-07-20T05:25:36;49.27;46.95;51.74;;
57092;Laerm;42968;52.094;4.328;2023-07-20T05:28:01;49.73;47.20;58.41;;
57092;Laerm;42968;52.094;4.328;2023-07-20T05:30:27;50.79;47.70;54.72;;
57092;Laerm;42968;52.094;4.328;2023-07-20T05:32:54;50.26;47.38;55.29;;
57092;Laerm;42968;52.094;4.328;2023-07-20T05:35:19;49.52;47.52;52.18;;
57092;Laerm;42968;52.094;4.328;2023-07-20T05:37:45;50.87;47.70;56.02;;
57092;Laerm;42968;52.094;4.328;2023-07-20T05:40:10;50.16;47.40;57.04;;
57092;Laerm;42968;52.094;4.328;2023-07-20T05:42:37;49.45;47.54;54.56;;
57092;Laerm;42968;52.094;4.328;2023-07-20T05:45:02;49.51;47.67;53.34;;
57092;Laerm;42968;52.094;4.328;2023-07-20T05:47:28;49.71;47.57;53.31;;
57092;Laerm;42968;52.094;4.328;2023-07-20T05:49:54;49.95;47.86;52.22;;
57092;Laerm;42968;52.094;4.328;2023-07-20T05:52:19;49.91;48.03;52.18;;
57092;Laerm;42968;52.094;4.328;2023-07-20T05:54:44;50.18;47.59;52.91;;
57092;Laerm;42968;52.094;4.328;2023-07-20T05:57:10;53.84;48.18;59.78;;
57092;Laerm;42968;52.094;4.328;2023-07-20T05:59:36;54.68;47.77;59.81;;
57092;Laerm;42968;52.094;4.328;2023-07-20T06:02:01;50.21;48.03;53.38;;
57092;Laerm;42968;52.094;4.328;2023-07-20T06:04:26;50.48;48.08;53.33;;
57092;Laerm;42968;52.094;4.328;2023-07-20T06:06:52;49.97;47.79;52.50;;
57092;Laerm;42968;52.094;4.328;2023-07-20T06:09:17;50.21;48.08;54.60;;
57092;Laerm;42968;52.094;4.328;2023-07-20T06:11:42;49.66;47.77;57.88;;
57092;Laerm;42968;52.094;4.328;2023-07-20T06:14:08;49.91;47.75;58.59;;
57092;Laerm;42968;52.094;4.328;2023-07-20T06:16:33;49.52;47.28;52.51;;
57092;Laerm;42968;52.094;4.328;2023-07-20T06:18:59;50.06;47.38;53.49;;
57092;Laerm;42968;52.094;4.328;2023-07-20T06:21:25;49.92;47.48;53.30;;
57092;Laerm;42968;52.094;4.328;2023-07-20T06:23:50;49.90;47.48;53.81;;
57092;Laerm;42968;52.094;4.328;2023-07-20T06:26:15;50.46;47.00;59.45;;
57092;Laerm;42968;52.094;4.328;2023-07-20T06:28:40;50.35;47.22;58.84;;
57092;Laerm;42968;52.094;4.328;2023-07-20T06:31:06;48.96;46.54;53.85;;
57092;Laerm;42968;52.094;4.328;2023-07-20T06:33:31;48.95;47.04;54.09;;
57092;Laerm;42968;52.094;4.328;2023-07-20T06:35:57;49.57;47.36;54.19;;
57092;Laerm;42968;52.094;4.328;2023-07-20T06:38:22;49.23;47.30;52.42;;
57092;Laerm;42968;52.094;4.328;2023-07-20T06:40:51;49.68;47.30;54.29;;
57092;Laerm;42968;52.094;4.328;2023-07-20T06:43:16;49.10;46.78;57.11;;
57092;Laerm;42968;52.094;4.328;2023-07-20T06:45:42;49.39;47.02;54.04;;
57092;Laerm;42968;52.094;4.328;2023-07-20T06:48:07;48.95;46.97;51.81;;
57092;Laerm;42968;52.094;4.328;2023-07-20T06:50:32;49.72;46.73;55.12;;
57092;Laerm;42968;52.094;4.328;2023-07-20T06:52:58;50.16;47.93;54.34;;
57092;Laerm;42968;52.094;4.328;2023-07-20T06:55:25;51.38;47.52;57.57;;
57092;Laerm;42968;52.094;4.328;2023-07-20T06:57:51;49.95;46.73;54.23;;
57092;Laerm;42968;52.094;4.328;2023-07-20T07:00:16;49.93;47.70;55.05;;
57092;Laerm;42968;52.094;4.328;2023-07-20T07:02:42;50.27;47.55;54.53;;
57092;Laerm;42968;52.094;4.328;2023-07-20T07:05:07;50.19;47.88;53.38;;
57092;Laerm;42968;52.094;4.328;2023-07-20T07:07:32;50.70;47.90;53.99;;
57092;Laerm;42968;52.094;4.328;2023-07-20T07:09:57;50.55;47.72;54.12;;
57092;Laerm;42968;52.094;4.328;2023-07-20T07:12:23;49.62;47.26;52.63;;
57092;Laerm;42968;52.094;4.328;2023-07-20T07:14:48;50.03;47.14;57.18;;
57092;Laerm;42968;52.094;4.328;2023-07-20T07:17:13;48.97;47.06;51.84;;
57092;Laerm;42968;52.094;4.328;2023-07-20T07:19:39;49.82;47.48;52.74;;
57092;Laerm;42968;52.094;4.328;2023-07-20T07:22:05;49.26;46.80;53.28;;
57092;Laerm;42968;52.094;4.328;2023-07-20T07:24:31;48.88;46.89;52.30;;
57092;Laerm;42968;52.094;4.328;2023-07-20T07:26:59;48.77;46.57;51.09;;
57092;Laerm;42968;52.094;4.328;2023-07-20T07:29:24;48.70;46.55;51.34;;
57092;Laerm;42968;52.094;4.328;2023-07-20T07:31:49;49.04;46.71;53.03;;
57092;Laerm;42968;52.094;4.328;2023-07-20T07:34:14;49.06;47.12;51.24;;
57092;Laerm;42968;52.094;4.328;2023-07-20T07:36:40;48.90;46.93;51.25;;
57092;Laerm;42968;52.094;4.328;2023-07-20T07:39:05;48.92;46.73;51.70;;
57092;Laerm;42968;52.094;4.328;2023-07-20T07:41:30;48.82;46.73;51.11;;
57092;Laerm;42968;52.094;4.328;2023-07-20T07:43:55;48.77;46.66;51.77;;
57092;Laerm;42968;52.094;4.328;2023-07-20T07:46:21;48.81;46.71;51.82;;
57092;Laerm;42968;52.094;4.328;2023-07-20T07:48:46;48.87;46.84;53.13;;
57092;Laerm;42968;52.094;4.328;2023-07-20T07:51:12;48.95;46.93;51.22;;
57092;Laerm;42968;52.094;4.328;2023-07-20T07:53:38;49.00;47.00;51.62;;
57092;Laerm;42968;52.094;4.328;2023-07-20T07:56:06;49.15;46.91;55.14;;
57092;Laerm;42968;52.094;4.328;2023-07-20T07:58:31;49.49;47.00;56.07;;
57092;Laerm;42968;52.094;4.328;2023-07-20T08:00:57;49.68;47.16;57.04;;
57092;Laerm;42968;52.094;4.328;2023-07-20T08:03:22;49.29;46.91;55.67;;
57092;Laerm;42968;52.094;4.328;2023-07-20T08:05:49;49.24;47.10;56.20;;
57092;Laerm;42968;52.094;4.328;2023-07-20T08:08:14;49.58;46.80;55.05;;
57092;Laerm;42968;52.094;4.328;2023-07-20T08:10:39;50.33;48.03;56.89;;
57092;Laerm;42968;52.094;4.328;2023-07-20T08:13:05;50.22;47.59;57.27;;
57092;Laerm;42968;52.094;4.328;2023-07-20T08:15:30;50.62;47.93;59.05;;
57092;Laerm;42968;52.094;4.328;2023-07-20T08:17:55;50.93;47.96;58.30;;
57092;Laerm;42968;52.094;4.328;2023-07-20T08:20:21;52.04;48.96;59.69;;
57092;Laerm;42968;52.094;4.328;2023-07-20T08:22:51;53.17;48.57;60.78;;
57092;Laerm;42968;52.094;4.328;2023-07-20T08:25:16;53.11;49.00;60.16;;
57092;Laerm;42968;52.094;4.328;2023-07-20T08:27:42;53.71;50.22;60.52;;
57092;Laerm;42968;52.094;4.328;2023-07-20T08:30:07;54.09;50.90;61.09;;
57092;Laerm;42968;52.094;4.328;2023-07-20T08:32:38;54.84;51.29;62.05;;
57092;Laerm;42968;52.094;4.328;2023-07-20T08:35:04;53.25;49.43;60.68;;
57092;Laerm;42968;52.094;4.328;2023-07-20T08:37:30;51.97;48.36;60.15;;
57092;Laerm;42968;52.094;4.328;2023-07-20T08:39:56;51.51;48.71;59.27;;
57092;Laerm;42968;52.094;4.328;2023-07-20T08:42:21;50.77;47.57;56.72;;
57092;Laerm;42968;52.094;4.328;2023-07-20T08:44:47;52.43;47.14;55.23;;
57092;Laerm;42968;52.094;4.328;2023-07-20T08:47:13;49.82;47.06;56.26;;
57092;Laerm;42968;52.094;4.328;2023-07-20T08:49:40;49.69;47.55;54.05;;
57092;Laerm;42968;52.094;4.328;2023-07-20T08:52:06;49.95;47.52;56.02;;
57092;Laerm;42968;52.094;4.328;2023-07-20T08:54:31;50.11;47.38;53.30;;
57092;Laerm;42968;52.094;4.328;2023-07-20T08:56:57;49.30;46.93;56.23;;
57092;Laerm;42968;52.094;4.328;2023-07-20T08:59:25;49.39;47.22;55.56;;
57092;Laerm;42968;52.094;4.328;2023-07-20T09:01:51;49.85;47.50;55.62;;
57092;Laerm;42968;52.094;4.328;2023-07-20T09:04:19;49.85;47.32;56.49;;
57092;Laerm;42968;52.094;4.328;2023-07-20T09:06:45;49.61;47.22;59.54;;
57092;Laerm;42968;52.094;4.328;2023-07-20T09:09:12;49.95;47.65;53.86;;
57092;Laerm;42968;52.094;4.328;2023-07-20T09:11:37;49.60;47.12;56.56;;
57092;Laerm;42968;52.094;4.328;2023-07-20T09:14:06;50.33;48.00;59.74;;
57092;Laerm;42968;52.094;4.328;2023-07-20T09:16:31;50.70;47.98;59.20;;
57092;Laerm;42968;52.094;4.328;2023-07-20T09:19:00;51.17;48.37;54.08;;
57092;Laerm;42968;52.094;4.328;2023-07-20T09:21:28;50.66;48.05;57.17;;
57092;Laerm;42968;52.094;4.328;2023-07-20T09:23:56;51.70;48.84;60.71;;
57092;Laerm;42968;52.094;4.328;2023-07-20T09:26:21;50.50;47.44;53.77;;
57092;Laerm;42968;52.094;4.328;2023-07-20T09:28:52;50.61;47.46;58.25;;
57092;Laerm;42968;52.094;4.328;2023-07-20T09:31:18;50.76;47.28;57.81;;
57092;Laerm;42968;52.094;4.328;2023-07-20T09:33:43;50.01;47.72;52.63;;
57092;Laerm;42968;52.094;4.328;2023-07-20T09:36:09;49.87;47.70;52.53;;
57092;Laerm;42968;52.094;4.328;2023-07-20T09:38:36;49.89;47.63;52.34;;
57092;Laerm;42968;52.094;4.328;2023-07-20T09:41:01;49.82;47.59;52.55;;
57092;Laerm;42968;52.094;4.328;2023-07-20T09:43:28;50.07;47.77;54.79;;
57092;Laerm;42968;52.094;4.328;2023-07-20T09:45:58;50.15;48.07;56.06;;
57092;Laerm;42968;52.094;4.328;2023-07-20T09:48:24;50.03;47.83;56.16;;
57092;Laerm;42968;52.094;4.328;2023-07-20T09:50:50;50.12;47.50;58.87;;
57092;Laerm;42968;52.094;4.328;2023-07-20T09:53:17;49.78;47.59;58.85;;
57092;Laerm;42968;52.094;4.328;2023-07-20T09:55:46;49.41;47.28;59.94;;
57092;Laerm;42968;52.094;4.328;2023-07-20T09:58:15;49.40;47.20;58.43;;
57092;Laerm;42968;52.094;4.328;2023-07-20T10:00:41;49.21;46.91;58.49;;
57092;Laerm;42968;52.094;4.328;2023-07-20T10:03:13;49.41;47.42;57.48;;
57092;Laerm;42968;52.094;4.328;2023-07-20T10:05:39;50.22;47.41;54.67;;
57092;Laerm;42968;52.094;4.328;2023-07-20T10:08:08;51.11;47.52;55.50;;
57092;Laerm;42968;52.094;4.328;2023-07-20T10:10:36;52.02;47.86;58.17;;
57092;Laerm;42968;52.094;4.328;2023-07-20T10:13:02;50.64;47.68;57.14;;
57092;Laerm;42968;52.094;4.328;2023-07-20T10:15:36;50.26;47.42;53.99;;
57092;Laerm;42968;52.094;4.328;2023-07-20T10:18:03;50.05;47.26;55.42;;
57092;Laerm;42968;52.094;4.328;2023-07-20T10:20:31;49.57;47.04;56.57;;
57092;Laerm;42968;52.094;4.328;2023-07-20T10:22:58;49.41;46.93;52.59;;
57092;Laerm;42968;52.094;4.328;2023-07-20T10:25:24;50.92;47.74;56.03;;
57092;Laerm;42968;52.094;4.328;2023-07-20T10:27:49;52.00;47.70;60.78;;
57092;Laerm;42968;52.094;4.328;2023-07-20T10:30:15;51.50;47.83;60.42;;
57092;Laerm;42968;52.094;4.328;2023-07-20T10:32:42;51.72;47.91;56.62;;
57092;Laerm;42968;52.094;4.328;2023-07-20T10:35:14;52.60;47.91;59.56;;
57092;Laerm;42968;52.094;4.328;2023-07-20T10:37:49;52.31;47.95;59.18;;
57092;Laerm;42968;52.094;4.328;2023-07-20T10:40:25;52.41;48.23;58.93;;
57092;Laerm;42968;52.094;4.328;2023-07-20T10:42:51;53.26;48.16;58.70;;
57092;Laerm;42968;52.094;4.328;2023-07-20T10:45:21;51.91;48.49;55.83;;
57092;Laerm;42968;52.094;4.328;2023-07-20T10:47:46;50.30;47.61;55.23;;
57092;Laerm;42968;52.094;4.328;2023-07-20T10:50:11;50.06;47.34;54.04;;
57092;Laerm;42968;52.094;4.328;2023-07-20T10:52:40;50.65;47.77;58.60;;
57092;Laerm;42968;52.094;4.328;2023-07-20T10:55:15;50.48;47.04;60.00;;
57092;Laerm;42968;52.094;4.328;2023-07-20T10:57:41;51.58;47.46;60.23;;
57092;Laerm;42968;52.094;4.328;2023-07-20T11:00:07;51.08;47.52;58.32;;
57092;Laerm;42968;52.094;4.328;2023-07-20T11:02:41;51.11;48.29;62.50;;
57092;Laerm;42968;52.094;4.328;2023-07-20T11:05:06;51.14;47.36;59.11;;
57092;Laerm;42968;52.094;4.328;2023-07-20T11:07:38;51.61;47.55;61.43;;
57092;Laerm;42968;52.094;4.328;2023-07-20T11:10:13;50.84;47.76;56.99;;
57092;Laerm;42968;52.094;4.328;2023-07-20T11:12:40;50.39;47.88;58.95;;
57092;Laerm;42968;52.094;4.328;2023-07-20T11:15:05;50.54;47.88;54.19;;
57092;Laerm;42968;52.094;4.328;2023-07-20T11:17:31;50.52;47.91;55.30;;
57092;Laerm;42968;52.094;4.328;2023-07-20T11:20:00;50.47;47.40;57.19;;
57092;Laerm;42968;52.094;4.328;2023-07-20T11:22:26;49.89;47.30;54.18;;
57092;Laerm;42968;52.094;4.328;2023-07-20T11:24:54;50.33;47.68;55.91;;
57092;Laerm;42968;52.094;4.328;2023-07-20T11:27:20;52.16;48.07;58.64;;
57092;Laerm;42968;52.094;4.328;2023-07-20T11:29:47;51.47;48.23;56.86;;
57092;Laerm;42968;52.094;4.328;2023-07-20T11:32:12;54.19;48.48;59.86;;
57092;Laerm;42968;52.094;4.328;2023-07-20T11:34:46;52.83;47.74;58.59;;
57092;Laerm;42968;52.094;4.328;2023-07-20T11:37:11;52.59;48.80;58.58;;
57092;Laerm;42968;52.094;4.328;2023-07-20T11:39:37;52.11;48.45;58.89;;
57092;Laerm;42968;52.094;4.328;2023-07-20T11:42:04;52.19;47.93;58.10;;
57092;Laerm;42968;52.094;4.328;2023-07-20T11:44:29;53.74;48.52;60.14;;
57092;Laerm;42968;52.094;4.328;2023-07-20T11:47:06;53.40;48.80;56.59;;
57092;Laerm;42968;52.094;4.328;2023-07-20T11:49:35;52.90;48.34;59.16;;
57092;Laerm;42968;52.094;4.328;2023-07-20T11:52:02;53.36;48.61;58.21;;
57092;Laerm;42968;52.094;4.328;2023-07-20T11:54:28;53.71;48.45;58.29;;
57092;Laerm;42968;52.094;4.328;2023-07-20T11:56:54;53.88;49.35;57.29;;
57092;Laerm;42968;52.094;4.328;2023-07-20T11:59:20;53.24;48.96;59.68;;
57092;Laerm;42968;52.094;4.328;2023-07-20T12:01:46;52.50;48.34;55.74;;
57092;Laerm;42968;52.094;4.328;2023-07-20T12:04:11;50.29;48.05;58.94;;
57092;Laerm;42968;52.094;4.328;2023-07-20T12:06:36;51.30;48.03;54.36;;
57092;Laerm;42968;52.094;4.328;2023-07-20T12:09:01;52.83;50.43;56.58;;
57092;Laerm;42968;52.094;4.328;2023-07-20T12:11:34;52.10;49.73;59.25;;
57092;Laerm;42968;52.094;4.328;2023-07-20T12:13:59;51.96;48.36;58.49;;
57092;Laerm;42968;52.094;4.328;2023-07-20T12:16:26;52.52;49.03;56.94;;
57092;Laerm;42968;52.094;4.328;2023-07-20T12:18:58;52.90;48.93;55.98;;
57092;Laerm;42968;52.094;4.328;2023-07-20T12:21:24;52.58;49.27;56.56;;
57092;Laerm;42968;52.094;4.328;2023-07-20T12:23:49;54.57;50.42;63.46;;
57092;Laerm;42968;52.094;4.328;2023-07-20T12:26:15;53.45;49.40;58.02;;
57092;Laerm;42968;52.094;4.328;2023-07-20T12:28:40;53.69;49.93;59.16;;
57092;Laerm;42968;52.094;4.328;2023-07-20T12:31:06;56.53;50.17;61.06;;
57092;Laerm;42968;52.094;4.328;2023-07-20T12:33:31;56.90;49.52;63.19;;
57092;Laerm;42968;52.094;4.328;2023-07-20T12:35:57;57.87;48.51;64.13;;
57092;Laerm;42968;52.094;4.328;2023-07-20T12:38:24;57.14;49.41;62.64;;
57092;Laerm;42968;52.094;4.328;2023-07-20T12:40:49;58.34;49.06;64.33;;
57092;Laerm;42968;52.094;4.328;2023-07-20T12:43:15;60.80;49.82;65.81;;
57092;Laerm;42968;52.094;4.328;2023-07-20T12:45:40;61.32;50.22;67.01;;
57092;Laerm;42968;52.094;4.328;2023-07-20T12:48:06;59.13;47.96;65.64;;
57092;Laerm;42968;52.094;4.328;2023-07-20T12:50:31;59.14;48.64;65.30;;
57092;Laerm;42968;52.094;4.328;2023-07-20T12:52:57;60.09;48.87;66.93;;
57092;Laerm;42968;52.094;4.328;2023-07-20T12:55:22;62.16;49.41;68.10;;
57092;Laerm;42968;52.094;4.328;2023-07-20T12:57:48;60.12;51.05;65.12;;
57092;Laerm;42968;52.094;4.328;2023-07-20T13:00:14;60.83;51.17;65.50;;
57092;Laerm;42968;52.094;4.328;2023-07-20T13:02:39;60.88;50.24;65.75;;
57092;Laerm;42968;52.094;4.328;2023-07-20T13:05:06;58.70;49.00;64.99;;
57092;Laerm;42968;52.094;4.328;2023-07-20T13:07:33;56.64;50.01;65.70;;
57092;Laerm;42968;52.094;4.328;2023-07-20T13:09:59;58.39;51.52;63.64;;
57092;Laerm;42968;52.094;4.328;2023-07-20T13:12:25;56.48;49.89;66.95;;
57092;Laerm;42968;52.094;4.328;2023-07-20T13:14:51;54.47;49.77;67.79;;
57092;Laerm;42968;52.094;4.328;2023-07-20T13:17:17;55.05;50.34;65.69;;
57092;Laerm;42968;52.094;4.328;2023-07-20T13:19:42;54.16;49.77;63.76;;
57092;Laerm;42968;52.094;4.328;2023-07-20T13:22:07;52.32;49.67;66.82;;
57092;Laerm;42968;52.094;4.328;2023-07-20T13:24:33;52.09;49.11;60.29;;
57092;Laerm;42968;52.094;4.328;2023-07-20T13:26:58;53.00;49.12;60.56;;
57092;Laerm;42968;52.094;4.328;2023-07-20T13:29:24;53.97;50.49;66.15;;
57092;Laerm;42968;52.094;4.328;2023-07-20T13:31:50;54.91;50.38;63.96;;
57092;Laerm;42968;52.094;4.328;2023-07-20T13:34:15;56.52;51.74;64.96;;
57092;Laerm;42968;52.094;4.328;2023-07-20T13:36:40;56.87;51.67;67.04;;
57092;Laerm;42968;52.094;4.328;2023-07-20T13:39:05;55.97;50.61;65.94;;
57092;Laerm;42968;52.094;4.328;2023-07-20T13:41:31;55.72;49.33;61.00;;
57092;Laerm;42968;52.094;4.328;2023-07-20T13:43:57;57.04;49.27;65.26;;
57092;Laerm;42968;52.094;4.328;2023-07-20T13:46:23;54.74;49.89;65.64;;
57092;Laerm;42968;52.094;4.328;2023-07-20T13:48:48;53.45;49.27;65.54;;
57092;Laerm;42968;52.094;4.328;2023-07-20T13:51:13;52.73;49.82;57.47;;